createdAt,value
2018-12-11T00:00:46.182Z,95.99
2018-12-11T00:01:46.159Z,96.09
2018-12-11T00:02:46.149Z,95.99
2018-12-11T00:03:46.139Z,96.09
2018-12-11T00:04:46.180Z,96.09
2018-12-11T00:05:46.111Z,95.78
2018-12-11T00:06:46.105Z,95.99
2018-12-11T00:07:46.095Z,95.99
2018-12-11T00:08:46.129Z,95.73
2018-12-11T00:09:46.120Z,95.99
2018-12-11T00:10:46.073Z,96.04
2018-12-11T00:11:46.092Z,96.20
2018-12-11T00:12:46.031Z,95.89
2018-12-11T00:13:46.026Z,96.09
2018-12-11T00:14:46.051Z,96.20
2018-12-11T00:15:46.014Z,96.30
2018-12-11T00:16:45.988Z,96.20
2018-12-11T00:18:47.123Z,96.15
2018-12-11T00:19:46.002Z,95.84
2018-12-11T00:20:45.955Z,96.09
2018-12-11T00:21:45.951Z,96.09
2018-12-11T00:22:45.924Z,95.94
2018-12-11T00:23:45.914Z,96.04
2018-12-11T00:24:45.939Z,96.15
2018-12-11T00:25:45.915Z,96.04
2018-12-11T00:26:45.895Z,95.63
2018-12-11T00:27:45.879Z,95.48
2018-12-11T00:28:45.872Z,95.28
2018-12-11T00:29:45.855Z,94.96
2018-12-11T00:30:45.874Z,94.76
2018-12-11T00:31:45.828Z,94.45
2018-12-11T00:32:45.836Z,94.24
2018-12-11T00:33:45.803Z,94.40
2018-12-11T00:34:45.849Z,94.45
2018-12-11T00:35:45.810Z,94.30
2018-12-11T00:36:45.777Z,94.13
2018-12-11T00:37:45.760Z,93.78
2018-12-11T00:38:45.808Z,94.13
2018-12-11T00:39:45.734Z,93.72
2018-12-11T00:40:45.769Z,93.99
2018-12-11T00:41:45.730Z,93.88
2018-12-11T00:42:45.716Z,94.30
2018-12-11T00:43:45.701Z,94.46
2018-12-11T00:44:45.716Z,94.40
2018-12-11T00:45:45.671Z,93.99
2018-12-11T00:46:45.682Z,94.20
2018-12-11T00:47:45.655Z,94.20
2018-12-11T00:48:45.634Z,93.84
2018-12-11T00:49:45.622Z,94.20
2018-12-11T00:50:45.662Z,93.74
2018-12-11T00:51:45.607Z,93.53
2018-12-11T00:52:45.599Z,93.43
2018-12-11T00:53:45.587Z,93.53
2018-12-11T00:54:45.570Z,93.53
2018-12-11T00:55:45.601Z,93.47
2018-12-11T00:56:45.582Z,93.43
2018-12-11T00:57:45.537Z,92.90
2018-12-11T00:58:45.524Z,93.32
2018-12-11T00:59:45.525Z,93.12
2018-12-11T01:00:45.505Z,93.26
2018-12-11T01:01:45.537Z,93.16
2018-12-11T01:02:45.484Z,93.05
2018-12-11T01:03:45.466Z,93.10
2018-12-11T01:04:45.473Z,93.37
2018-12-11T01:05:45.456Z,93.10
2018-12-11T01:06:45.465Z,93.20
2018-12-11T01:07:45.434Z,93.10
2018-12-11T01:08:45.421Z,93.45
2018-12-11T01:09:45.404Z,93.97
2018-12-11T01:10:45.394Z,94.07
2018-12-11T01:11:45.415Z,93.91
2018-12-11T01:12:45.388Z,94.01
2018-12-11T01:13:45.362Z,94.80
2018-12-11T01:14:45.360Z,95.15
2018-12-11T01:15:45.343Z,95.15
2018-12-11T01:16:45.368Z,95.05
2018-12-11T01:17:45.462Z,95.15
2018-12-11T01:18:45.346Z,95.62
2018-12-11T01:19:45.295Z,95.26
2018-12-11T01:20:45.286Z,96.09
2018-12-11T01:21:45.273Z,96.09
2018-12-11T01:22:45.288Z,95.78
2018-12-11T01:23:45.258Z,95.99
2018-12-11T01:24:45.249Z,95.57
2018-12-11T01:25:45.228Z,95.62
2018-12-11T01:26:45.250Z,95.67
2018-12-11T01:27:45.278Z,95.83
2018-12-11T01:28:45.203Z,95.72
2018-12-11T01:29:45.189Z,95.89
2018-12-11T01:30:45.177Z,95.93
2018-12-11T01:31:45.162Z,95.83
2018-12-11T01:32:45.193Z,96.20
2018-12-11T01:33:45.146Z,96.14
2018-12-11T01:34:45.134Z,96.34
2018-12-11T01:35:45.124Z,96.34
2018-12-11T01:36:45.107Z,96.34
2018-12-11T01:37:45.136Z,96.45
2018-12-11T01:38:45.085Z,96.55
2018-12-11T01:39:45.077Z,96.34
2018-12-11T01:40:45.089Z,96.66
2018-12-11T01:41:45.062Z,96.86
2018-12-11T01:42:45.065Z,96.86
2018-12-11T01:43:45.065Z,96.80
2018-12-11T01:44:45.032Z,96.86
2018-12-11T01:45:45.019Z,97.01
2018-12-11T01:46:45.000Z,96.80
2018-12-11T01:47:45.076Z,97.01
2018-12-11T01:48:44.978Z,96.80
2018-12-11T01:49:44.996Z,97.22
2018-12-11T01:50:44.955Z,97.33
2018-12-11T01:51:44.944Z,97.43
2018-12-11T01:52:44.968Z,97.28
2018-12-11T01:53:44.919Z,97.01
2018-12-11T01:54:44.946Z,97.28
2018-12-11T01:55:44.903Z,97.28
2018-12-11T01:56:44.890Z,97.59
2018-12-11T01:57:44.887Z,97.38
2018-12-11T01:59:46.001Z,97.28
2018-12-11T02:00:44.847Z,97.12
2018-12-11T02:01:44.838Z,97.53
2018-12-11T02:02:44.838Z,97.33
2018-12-11T02:03:44.846Z,97.12
2018-12-11T02:04:44.810Z,97.33
2018-12-11T02:05:44.809Z,97.33
2018-12-11T02:06:44.784Z,97.22
2018-12-11T02:07:44.763Z,97.37
2018-12-11T02:08:44.791Z,97.37
2018-12-11T02:09:44.766Z,97.37
2018-12-11T02:10:44.769Z,97.27
2018-12-11T02:11:44.734Z,97.06
2018-12-11T02:12:44.726Z,97.78
2018-12-11T02:13:44.700Z,97.37
2018-12-11T02:14:44.791Z,97.52
2018-12-11T02:15:44.692Z,97.89
2018-12-11T02:16:44.677Z,97.47
2018-12-11T02:17:44.660Z,97.52
2018-12-11T02:18:44.693Z,98.04
2018-12-11T02:19:44.638Z,97.20
2018-12-11T02:20:44.635Z,98.20
2018-12-11T02:21:44.628Z,98.25
2018-12-11T02:22:44.600Z,98.31
2018-12-11T02:23:44.627Z,98.20
2018-12-11T02:24:44.611Z,98.46
2018-12-11T02:25:44.603Z,97.83
2018-12-11T02:26:44.557Z,97.89
2018-12-11T02:27:44.549Z,98.04
2018-12-11T02:28:44.585Z,98.62
2018-12-11T02:29:44.555Z,98.52
2018-12-11T02:30:44.522Z,98.25
2018-12-11T02:31:44.509Z,98.77
2018-12-11T02:33:45.626Z,98.77
2018-12-11T02:34:44.487Z,98.31
2018-12-11T02:35:44.491Z,98.46
2018-12-11T02:36:44.464Z,98.52
2018-12-11T02:37:44.454Z,98.93
2018-12-11T02:38:44.432Z,98.62
2018-12-11T02:39:44.436Z,98.36
2018-12-11T02:40:44.439Z,98.78
2018-12-11T02:41:44.397Z,98.62
2018-12-11T02:42:44.435Z,98.41
2018-12-11T02:43:44.377Z,98.41
2018-12-11T02:44:44.364Z,98.31
2018-12-11T02:45:44.354Z,98.83
2018-12-11T02:46:44.334Z,98.20
2018-12-11T02:47:44.339Z,98.62
2018-12-11T02:48:44.353Z,98.72
2018-12-11T02:49:44.314Z,98.10
2018-12-11T02:51:45.456Z,98.66
2018-12-11T02:52:44.271Z,98.77
2018-12-11T02:53:44.271Z,98.66
2018-12-11T02:54:44.253Z,98.62
2018-12-11T02:55:44.269Z,98.41
2018-12-11T02:56:44.240Z,98.72
2018-12-11T02:57:44.224Z,98.72
2018-12-11T02:58:44.209Z,98.62
2018-12-11T02:59:44.203Z,99.04
2018-12-11T03:00:44.224Z,98.83
2018-12-11T03:01:44.211Z,98.62
2018-12-11T03:02:44.170Z,98.83
2018-12-11T03:03:44.150Z,98.36
2018-12-11T03:04:44.147Z,98.78
2018-12-11T03:05:44.164Z,98.99
2018-12-11T03:06:44.159Z,98.22
2018-12-11T03:08:45.248Z,98.53
2018-12-11T03:09:44.090Z,98.74
2018-12-11T03:11:45.217Z,98.59
2018-12-11T03:12:44.089Z,98.80
2018-12-11T03:13:44.040Z,98.22
2018-12-11T03:14:44.038Z,98.53
2018-12-11T03:15:44.022Z,98.27
2018-12-11T03:16:44.010Z,98.48
2018-12-11T03:17:44.004Z,98.27
2018-12-11T03:18:44.020Z,98.48
2018-12-11T03:19:43.976Z,98.07
2018-12-11T03:20:43.992Z,98.01
2018-12-11T03:21:43.957Z,97.59
2018-12-11T03:22:43.944Z,98.07
2018-12-11T03:23:43.967Z,98.07
2018-12-11T03:24:43.925Z,98.11
2018-12-11T03:25:43.907Z,97.96
2018-12-11T03:26:43.934Z,97.96
2018-12-11T03:27:43.890Z,97.65
2018-12-11T03:28:43.875Z,97.13
2018-12-11T03:30:44.994Z,97.24
2018-12-11T03:31:43.879Z,97.34
2018-12-11T03:32:43.838Z,97.55
2018-12-11T03:33:43.832Z,97.80
2018-12-11T03:34:44.452Z,97.59
2018-12-11T03:35:43.802Z,97.38
2018-12-11T03:36:43.800Z,97.17
2018-12-11T03:37:43.806Z,97.80
2018-12-11T03:38:43.764Z,97.28
2018-12-11T03:39:43.765Z,97.01
2018-12-11T03:40:43.745Z,97.49
2018-12-11T03:41:43.735Z,97.49
2018-12-11T03:43:44.875Z,97.43
2018-12-11T03:44:43.698Z,97.43
2018-12-11T03:45:43.685Z,97.74
2018-12-11T03:46:43.686Z,97.64
2018-12-11T03:47:43.698Z,97.53
2018-12-11T03:48:43.662Z,97.74
2018-12-11T03:49:43.652Z,97.22
2018-12-11T03:50:43.643Z,97.27
2018-12-11T03:51:43.624Z,97.52
2018-12-11T03:52:43.651Z,97.83
2018-12-11T03:53:43.604Z,97.62
2018-12-11T03:54:43.589Z,97.83
2018-12-11T03:55:43.617Z,97.62
2018-12-11T03:56:43.567Z,97.62
2018-12-11T03:57:43.644Z,98.56
2018-12-11T03:58:43.569Z,98.14
2018-12-11T03:59:43.538Z,98.14
2018-12-11T04:00:43.525Z,98.14
2018-12-11T04:01:43.524Z,97.94
2018-12-11T04:02:43.552Z,98.66
2018-12-11T04:03:43.501Z,98.46
2018-12-11T04:04:43.480Z,98.46
2018-12-11T04:05:43.473Z,98.77
2018-12-11T04:06:43.456Z,98.62
2018-12-11T04:07:43.477Z,98.41
2018-12-11T04:08:43.439Z,98.46
2018-12-11T04:09:43.433Z,98.52
2018-12-11T04:10:43.450Z,98.46
2018-12-11T04:11:43.402Z,98.46
2018-12-11T04:12:43.388Z,98.56
2018-12-11T04:13:43.379Z,98.77
2018-12-11T04:14:43.412Z,98.66
2018-12-11T04:15:43.389Z,98.87
2018-12-11T04:16:43.380Z,99.04
2018-12-11T04:17:43.337Z,98.62
2018-12-11T04:18:43.356Z,98.52
2018-12-11T04:19:43.310Z,98.72
2018-12-11T04:20:43.302Z,98.72
2018-12-11T04:21:43.308Z,98.68
2018-12-11T04:22:43.283Z,98.36
2018-12-11T04:23:43.293Z,98.88
2018-12-11T04:24:43.253Z,98.88
2018-12-11T04:25:43.248Z,98.63
2018-12-11T04:26:43.255Z,98.59
2018-12-11T04:27:43.227Z,98.53
2018-12-11T04:28:43.241Z,97.86
2018-12-11T04:29:43.237Z,98.38
2018-12-11T04:30:43.185Z,97.86
2018-12-11T04:31:43.179Z,97.19
2018-12-11T04:32:43.176Z,97.50
2018-12-11T04:33:43.160Z,97.40
2018-12-11T04:34:43.387Z,97.19
2018-12-11T04:35:44.728Z,96.88
2018-12-11T04:36:43.137Z,97.04
2018-12-11T04:37:43.123Z,96.57
2018-12-11T04:38:43.119Z,97.14
2018-12-11T04:39:43.142Z,96.73
2018-12-11T04:40:43.080Z,96.57
2018-12-11T04:41:43.073Z,96.73
2018-12-11T04:42:43.086Z,96.47
2018-12-11T04:43:43.056Z,96.15
2018-12-11T04:44:43.079Z,95.48
2018-12-11T04:45:43.023Z,95.69
2018-12-11T04:46:43.018Z,95.94
2018-12-11T04:47:43.013Z,96.04
2018-12-11T04:48:42.996Z,96.15
2018-12-11T04:49:43.017Z,96.11
2018-12-11T04:50:42.972Z,96.04
2018-12-11T04:51:42.971Z,96.25
2018-12-11T04:52:42.946Z,95.53
2018-12-11T04:53:42.938Z,96.20
2018-12-11T04:54:42.935Z,96.04
2018-12-11T04:55:42.943Z,95.94
2018-12-11T04:56:42.937Z,95.89
2018-12-11T04:57:42.892Z,95.94
2018-12-11T04:58:42.890Z,95.78
2018-12-11T04:59:42.899Z,95.89
2018-12-11T05:00:42.964Z,95.99
2018-12-11T05:01:42.865Z,95.67
2018-12-11T05:02:42.837Z,96.30
2018-12-11T05:03:42.825Z,96.20
2018-12-11T05:04:42.817Z,96.30
2018-12-11T05:05:42.834Z,96.30
2018-12-11T05:06:42.796Z,96.82
2018-12-11T05:07:42.791Z,96.72
2018-12-11T05:08:42.768Z,96.72
2018-12-11T05:09:42.759Z,96.72
2018-12-11T05:10:42.782Z,96.72
2018-12-11T05:11:42.769Z,96.86
2018-12-11T05:12:42.726Z,96.72
2018-12-11T05:13:42.719Z,96.66
2018-12-11T05:14:42.718Z,96.66
2018-12-11T05:15:42.725Z,97.07
2018-12-11T05:16:42.690Z,97.28
2018-12-11T05:17:42.682Z,96.86
2018-12-11T05:18:42.666Z,96.66
2018-12-11T05:19:42.670Z,97.38
2018-12-11T05:20:42.688Z,97.07
2018-12-11T05:21:42.636Z,97.07
2018-12-11T05:22:42.618Z,96.86
2018-12-11T05:23:42.610Z,96.97
2018-12-11T05:24:42.605Z,96.86
2018-12-11T05:25:42.618Z,96.86
2018-12-11T05:26:42.581Z,97.28
2018-12-11T05:27:42.560Z,96.76
2018-12-11T05:28:42.555Z,96.91
2018-12-11T05:29:42.558Z,97.53
2018-12-11T05:30:42.531Z,97.53
2018-12-11T05:31:42.556Z,97.01
2018-12-11T05:32:42.513Z,97.33
2018-12-11T05:33:42.503Z,97.53
2018-12-11T05:34:42.509Z,97.64
2018-12-11T05:35:42.478Z,97.17
2018-12-11T05:36:42.495Z,96.91
2018-12-11T05:37:42.453Z,96.91
2018-12-11T05:38:42.483Z,97.22
2018-12-11T05:39:42.433Z,96.91
2018-12-11T05:40:42.422Z,96.91
2018-12-11T05:41:42.419Z,96.91
2018-12-11T05:42:42.424Z,97.12
2018-12-11T05:43:42.387Z,97.22
2018-12-11T05:44:42.390Z,97.12
2018-12-11T05:45:42.391Z,96.91
2018-12-11T05:46:42.352Z,97.33
2018-12-11T05:47:42.372Z,97.53
2018-12-11T05:48:42.336Z,96.80
2018-12-11T05:49:42.338Z,97.53
2018-12-11T05:50:42.311Z,97.37
2018-12-11T05:51:42.432Z,97.33
2018-12-11T05:52:42.367Z,97.01
2018-12-11T05:53:42.284Z,97.22
2018-12-11T05:54:42.266Z,97.16
2018-12-11T05:55:42.262Z,97.12
2018-12-11T05:56:42.243Z,97.33
2018-12-11T05:57:42.276Z,97.37
2018-12-11T05:58:42.296Z,97.01
2018-12-11T06:00:43.349Z,97.12
2018-12-11T06:02:43.403Z,96.80
2018-12-11T06:03:42.199Z,97.22
2018-12-11T06:04:42.156Z,97.22
2018-12-11T06:05:42.144Z,97.27
2018-12-11T06:06:42.534Z,97.22
2018-12-11T06:07:42.122Z,97.27
2018-12-11T06:08:42.144Z,97.47
2018-12-11T06:09:42.109Z,97.78
2018-12-11T06:10:42.119Z,97.53
2018-12-11T06:11:42.079Z,97.78
2018-12-11T06:12:42.065Z,97.43
2018-12-11T06:13:42.079Z,97.85
2018-12-11T06:14:42.057Z,97.74
2018-12-11T06:15:42.033Z,97.53
2018-12-11T06:16:42.021Z,97.64
2018-12-11T06:17:42.009Z,97.64
2018-12-11T06:18:42.049Z,97.12
2018-12-11T06:19:41.992Z,97.43
2018-12-11T06:20:42.007Z,97.47
2018-12-11T06:21:42.019Z,97.58
2018-12-11T06:22:41.957Z,97.58
2018-12-11T06:23:41.945Z,97.27
2018-12-11T06:24:41.966Z,97.89
2018-12-11T06:25:41.936Z,97.47
2018-12-11T06:27:43.033Z,97.68
2018-12-11T06:28:41.893Z,97.53
2018-12-11T06:29:41.903Z,97.58
2018-12-11T06:30:41.898Z,97.27
2018-12-11T06:31:41.858Z,97.68
2018-12-11T06:32:41.846Z,97.89
2018-12-11T06:33:41.848Z,97.89
2018-12-11T06:34:41.866Z,97.52
2018-12-11T06:35:41.862Z,97.83
2018-12-11T06:36:41.807Z,98.10
2018-12-11T06:38:42.935Z,98.10
2018-12-11T06:39:41.804Z,98.52
2018-12-11T06:40:41.763Z,97.58
2018-12-11T06:41:41.758Z,97.33
2018-12-11T06:42:41.746Z,97.43
2018-12-11T06:43:41.745Z,97.64
2018-12-11T06:44:41.725Z,97.85
2018-12-11T06:45:41.758Z,97.95
2018-12-11T06:46:41.688Z,97.43
2018-12-11T06:47:41.682Z,97.53
2018-12-11T06:48:41.678Z,97.37
2018-12-11T06:49:41.661Z,97.47
2018-12-11T06:50:41.677Z,97.58
2018-12-11T06:51:41.634Z,97.47
2018-12-11T06:52:41.638Z,97.47
2018-12-11T06:53:41.646Z,97.37
2018-12-11T06:54:41.595Z,98.31
2018-12-11T06:55:41.618Z,98.05
2018-12-11T06:56:41.589Z,98.57
2018-12-11T06:57:41.591Z,97.74
2018-12-11T06:58:41.556Z,97.85
2018-12-11T06:59:41.553Z,98.26
2018-12-11T07:00:41.582Z,98.36
2018-12-11T07:01:41.535Z,97.64
2018-12-11T07:02:41.515Z,97.53
2018-12-11T07:03:41.507Z,97.53
2018-12-11T07:04:41.492Z,97.58
2018-12-11T07:05:41.528Z,97.64
2018-12-11T07:06:41.491Z,97.43
2018-12-11T07:07:41.482Z,97.95
2018-12-11T07:08:41.452Z,97.58
2018-12-11T07:09:41.438Z,97.22
2018-12-11T07:10:41.435Z,97.43
2018-12-11T07:11:41.442Z,97.22
2018-12-11T07:12:41.402Z,97.22
2018-12-11T07:13:41.393Z,97.33
2018-12-11T07:14:41.390Z,97.64
2018-12-11T07:15:41.368Z,97.33
2018-12-11T07:16:41.416Z,97.33
2018-12-11T07:17:41.350Z,97.37
2018-12-11T07:18:41.333Z,97.37
2018-12-11T07:19:41.326Z,97.68
2018-12-11T07:20:41.346Z,97.68
2018-12-11T07:21:41.314Z,97.31
2018-12-11T07:22:41.317Z,97.94
2018-12-11T07:23:41.280Z,98.04
2018-12-11T07:24:41.269Z,97.99
2018-12-11T07:25:41.258Z,97.62
2018-12-11T07:26:41.251Z,98.56
2018-12-11T07:27:41.278Z,98.41
2018-12-11T07:28:41.270Z,98.31
2018-12-11T07:29:41.216Z,98.31
2018-12-11T07:30:41.202Z,98.31
2018-12-11T07:31:41.193Z,98.52
2018-12-11T07:32:41.210Z,98.31
2018-12-11T07:33:41.177Z,98.35
2018-12-11T07:34:41.159Z,98.41
2018-12-11T07:35:41.145Z,98.20
2018-12-11T07:36:41.143Z,98.20
2018-12-11T07:37:41.161Z,98.62
2018-12-11T07:38:41.121Z,98.35
2018-12-11T07:39:41.113Z,98.20
2018-12-11T07:40:41.092Z,98.20
2018-12-11T07:41:41.081Z,97.68
2018-12-11T07:42:41.127Z,98.41
2018-12-11T07:43:41.065Z,97.89
2018-12-11T07:44:41.051Z,98.20
2018-12-11T07:45:41.046Z,98.26
2018-12-11T07:46:41.023Z,98.52
2018-12-11T07:47:41.038Z,98.10
2018-12-11T07:48:41.036Z,97.47
2018-12-11T07:49:40.991Z,97.37
2018-12-11T07:50:40.982Z,97.72
2018-12-11T07:51:40.973Z,97.58
2018-12-11T07:52:40.959Z,97.52
2018-12-11T07:53:40.975Z,97.83
2018-12-11T07:54:40.968Z,98.04
2018-12-11T07:55:40.931Z,98.10
2018-12-11T07:56:40.921Z,98.41
2018-12-11T07:57:40.899Z,98.10
2018-12-11T07:58:40.900Z,98.41
2018-12-11T07:59:40.911Z,98.10
2018-12-11T08:00:40.925Z,98.20
2018-12-11T08:01:40.867Z,98.10
2018-12-11T08:02:40.860Z,97.78
2018-12-11T08:03:40.844Z,97.99
2018-12-11T08:04:40.862Z,98.10
2018-12-11T08:05:40.863Z,98.10
2018-12-11T08:07:41.952Z,98.36
2018-12-11T08:08:40.780Z,98.36
2018-12-11T08:09:40.806Z,97.33
2018-12-11T08:10:40.767Z,97.64
2018-12-11T08:11:40.755Z,97.74
2018-12-11T08:12:40.734Z,97.53
2018-12-11T08:13:40.738Z,97.53
2018-12-11T08:14:40.746Z,97.53
2018-12-11T08:15:40.706Z,97.74
2018-12-11T08:16:40.694Z,97.53
2018-12-11T08:17:40.695Z,97.53
2018-12-11T08:18:40.678Z,97.33
2018-12-11T08:19:40.764Z,97.43
2018-12-11T08:20:40.651Z,97.33
2018-12-11T08:21:40.641Z,97.53
2018-12-11T08:22:40.633Z,97.53
2018-12-11T08:23:40.627Z,98.16
2018-12-11T08:24:40.636Z,97.12
2018-12-11T08:25:40.617Z,98.01
2018-12-11T08:26:40.585Z,97.28
2018-12-11T08:27:40.570Z,97.38
2018-12-11T08:28:40.567Z,97.70
2018-12-11T08:29:40.560Z,97.28
2018-12-11T08:30:40.567Z,96.86
2018-12-11T08:31:40.550Z,97.07
2018-12-11T08:32:40.511Z,97.07
2018-12-11T08:33:40.507Z,97.07
2018-12-11T08:34:40.491Z,97.28
2018-12-11T08:35:40.520Z,97.17
2018-12-11T08:36:40.475Z,97.28
2018-12-11T08:37:40.459Z,97.34
2018-12-11T08:38:40.447Z,96.82
2018-12-11T08:39:40.435Z,96.82
2018-12-11T08:40:40.465Z,97.13
2018-12-11T08:41:40.421Z,96.98
2018-12-11T08:42:40.398Z,96.98
2018-12-11T08:43:40.400Z,96.88
2018-12-11T08:44:40.377Z,96.73
2018-12-11T08:45:40.402Z,96.62
2018-12-11T08:46:40.372Z,96.62
2018-12-11T08:47:40.355Z,96.17
2018-12-11T08:48:40.341Z,95.54
2018-12-11T08:49:40.335Z,95.86
2018-12-11T08:50:40.386Z,95.75
2018-12-11T08:51:40.325Z,95.34
2018-12-11T08:52:40.292Z,95.29
2018-12-11T08:53:40.287Z,94.82
2018-12-11T08:54:40.270Z,95.09
2018-12-11T08:55:40.263Z,94.05
2018-12-11T08:56:40.288Z,93.84
2018-12-11T08:57:40.235Z,93.74
2018-12-11T08:58:40.235Z,93.74
2018-12-11T08:59:40.219Z,93.43
2018-12-11T09:00:40.204Z,93.22
2018-12-11T09:01:40.255Z,93.57
2018-12-11T09:02:40.184Z,93.53
2018-12-11T09:03:40.175Z,93.47
2018-12-11T09:04:41.395Z,93.88
2018-12-11T09:05:40.151Z,93.88
2018-12-11T09:06:40.178Z,94.09
2018-12-11T09:07:40.130Z,93.88
2018-12-11T09:08:40.124Z,93.88
2018-12-11T09:09:40.116Z,94.30
2018-12-11T09:10:40.103Z,94.20
2018-12-11T09:11:40.142Z,93.88
2018-12-11T09:12:40.077Z,94.45
2018-12-11T09:13:40.068Z,94.40
2018-12-11T09:14:40.057Z,94.09
2018-12-11T09:15:40.045Z,94.20
2018-12-11T09:16:40.052Z,94.26
2018-12-11T09:17:40.054Z,94.26
2018-12-11T09:18:40.010Z,93.84
2018-12-11T09:19:39.996Z,93.59
2018-12-11T09:20:39.991Z,93.28
2018-12-11T09:21:39.984Z,93.38
2018-12-11T09:22:39.993Z,93.33
2018-12-11T09:23:39.957Z,93.44
2018-12-11T09:24:39.957Z,93.23
2018-12-11T09:25:39.947Z,92.93
2018-12-11T09:26:39.933Z,92.78
2018-12-11T09:27:39.939Z,92.98
2018-12-11T09:28:39.907Z,92.68
2018-12-11T09:29:39.899Z,92.57
2018-12-11T09:30:39.882Z,91.74
2018-12-11T09:31:39.904Z,92.16
2018-12-11T09:32:39.877Z,91.53
2018-12-11T09:33:39.863Z,91.53
2018-12-11T09:34:39.848Z,91.22
2018-12-11T09:36:40.958Z,91.12
2018-12-11T09:37:39.805Z,91.12
2018-12-11T09:38:39.838Z,91.16
2018-12-11T09:39:39.791Z,91.12
2018-12-11T09:40:39.770Z,91.06
2018-12-11T09:41:39.771Z,91.16
2018-12-11T09:42:39.790Z,91.58
2018-12-11T09:43:39.760Z,91.16
2018-12-11T09:44:39.726Z,91.58
2018-12-11T09:45:39.722Z,91.27
2018-12-11T09:46:39.707Z,92.20
2018-12-11T09:47:39.691Z,91.78
2018-12-11T09:48:39.722Z,91.89
2018-12-11T09:49:39.667Z,92.61
2018-12-11T09:50:39.659Z,92.30
2018-12-11T09:51:39.646Z,92.20
2018-12-11T09:52:39.636Z,92.20
2018-12-11T09:53:39.651Z,92.10
2018-12-11T09:54:39.612Z,92.41
2018-12-11T09:55:39.605Z,91.68
2018-12-11T09:56:39.600Z,91.78
2018-12-11T09:57:39.583Z,91.53
2018-12-11T09:58:39.608Z,91.53
2018-12-11T09:59:39.568Z,91.22
2018-12-11T10:00:39.578Z,91.33
2018-12-11T10:01:39.558Z,91.43
2018-12-11T10:02:39.537Z,91.39
2018-12-11T10:03:39.594Z,91.14
2018-12-11T10:04:39.514Z,90.99
2018-12-11T10:05:39.541Z,91.20
2018-12-11T10:06:39.485Z,90.53
2018-12-11T10:07:39.475Z,90.33
2018-12-11T10:08:39.497Z,90.60
2018-12-11T10:09:39.469Z,90.02
2018-12-11T10:10:39.446Z,89.46
2018-12-11T10:11:39.436Z,89.92
2018-12-11T10:12:39.417Z,90.02
2018-12-11T10:13:39.456Z,91.16
2018-12-11T10:14:39.404Z,90.53
2018-12-11T10:15:39.380Z,90.33
2018-12-11T10:17:40.522Z,91.30
2018-12-11T10:18:39.353Z,91.61
2018-12-11T10:20:40.572Z,92.49
2018-12-11T10:21:39.338Z,92.38
2018-12-11T10:22:39.297Z,92.69
2018-12-11T10:23:39.296Z,92.69
2018-12-11T10:24:39.309Z,93.00
2018-12-11T10:26:40.571Z,93.10
2018-12-11T10:27:39.247Z,93.41
2018-12-11T10:28:39.249Z,93.46
2018-12-11T10:29:39.263Z,93.46
2018-12-11T10:30:39.214Z,93.21
2018-12-11T10:31:39.206Z,93.21
2018-12-11T10:32:39.199Z,93.27
2018-12-11T10:33:39.183Z,93.06
2018-12-11T10:34:39.204Z,93.27
2018-12-11T10:35:39.154Z,93.12
2018-12-11T10:36:39.193Z,93.23
2018-12-11T10:37:39.138Z,92.61
2018-12-11T10:38:39.129Z,93.02
2018-12-11T10:39:39.114Z,92.91
2018-12-11T10:40:39.135Z,92.71
2018-12-11T10:41:39.096Z,92.40
2018-12-11T10:42:39.079Z,93.02
2018-12-11T10:43:39.084Z,92.81
2018-12-11T10:44:39.067Z,92.36
2018-12-11T10:45:39.080Z,91.94
2018-12-11T10:46:39.045Z,90.80
2018-12-11T10:47:39.024Z,91.11
2018-12-11T10:48:39.014Z,91.01
2018-12-11T10:49:39.017Z,91.17
2018-12-11T10:50:39.075Z,91.07
2018-12-11T10:51:38.985Z,90.97
2018-12-11T10:52:38.985Z,90.35
2018-12-11T10:53:38.960Z,90.45
2018-12-11T10:54:38.956Z,90.66
2018-12-11T10:55:38.963Z,90.35
2018-12-11T10:56:38.926Z,89.94
2018-12-11T10:57:38.917Z,90.45
2018-12-11T10:58:38.903Z,89.73
2018-12-11T10:59:38.896Z,90.66
2018-12-11T11:00:38.910Z,90.66
2018-12-11T11:01:38.873Z,90.56
2018-12-11T11:02:38.873Z,90.45
2018-12-11T11:03:38.855Z,90.66
2018-12-11T11:04:38.849Z,90.35
2018-12-11T11:05:38.876Z,90.20
2018-12-11T11:06:38.822Z,90.35
2018-12-11T11:07:38.810Z,90.56
2018-12-11T11:08:38.812Z,90.25
2018-12-11T11:09:38.788Z,89.89
2018-12-11T11:10:38.870Z,89.83
2018-12-11T11:11:38.792Z,89.79
2018-12-11T11:12:38.758Z,89.94
2018-12-11T11:13:38.788Z,88.70
2018-12-11T11:14:38.740Z,89.07
2018-12-11T11:15:39.477Z,89.11
2018-12-11T11:17:39.870Z,89.62
2018-12-11T11:18:38.696Z,89.52
2018-12-11T11:19:38.674Z,88.59
2018-12-11T11:21:39.835Z,89.25
2018-12-11T11:22:38.794Z,89.67
2018-12-11T11:23:38.836Z,89.40
2018-12-11T11:24:38.806Z,88.84
2018-12-11T11:25:38.758Z,89.09
2018-12-11T11:26:38.804Z,89.09
2018-12-11T11:27:38.591Z,89.29
2018-12-11T11:28:38.576Z,89.81
2018-12-11T11:29:38.583Z,90.12
2018-12-11T11:30:38.557Z,90.44
2018-12-11T11:31:38.569Z,90.74
2018-12-11T11:32:38.541Z,89.92
2018-12-11T11:33:38.529Z,90.74
2018-12-11T11:34:38.504Z,90.53
2018-12-11T11:35:38.496Z,89.46
2018-12-11T11:36:38.520Z,89.36
2018-12-11T11:37:38.484Z,90.02
2018-12-11T11:38:38.480Z,89.46
2018-12-11T11:39:38.451Z,89.50
2018-12-11T11:40:38.452Z,89.46
2018-12-11T11:41:38.466Z,89.81
2018-12-11T11:42:38.448Z,88.94
2018-12-11T11:43:38.404Z,89.87
2018-12-11T11:44:38.414Z,89.46
2018-12-11T11:45:38.388Z,90.08
2018-12-11T11:46:38.378Z,89.04
2018-12-11T11:47:38.415Z,89.40
2018-12-11T11:48:38.361Z,89.67
2018-12-11T11:49:38.348Z,89.56
2018-12-11T11:50:38.341Z,89.67
2018-12-11T11:51:38.319Z,88.74
2018-12-11T11:52:38.330Z,88.84
2018-12-11T11:53:38.306Z,89.15
2018-12-11T11:54:38.296Z,89.25
2018-12-11T11:55:38.276Z,89.62
2018-12-11T11:56:38.280Z,89.11
2018-12-11T11:57:38.299Z,89.01
2018-12-11T11:58:38.254Z,89.42
2018-12-11T11:59:38.242Z,88.70
2018-12-11T12:00:38.229Z,89.22
2018-12-11T12:01:38.243Z,89.83
2018-12-11T12:02:38.314Z,89.22
2018-12-11T12:03:38.190Z,89.62
2018-12-11T12:04:38.176Z,89.01
2018-12-11T12:05:38.170Z,89.42
2018-12-11T12:06:38.164Z,89.42
2018-12-11T12:07:38.230Z,88.76
2018-12-11T12:08:38.259Z,89.07
2018-12-11T12:09:38.123Z,87.79
2018-12-11T12:10:38.136Z,87.79
2018-12-11T12:11:38.099Z,87.48
2018-12-11T12:12:38.121Z,86.82
2018-12-11T12:13:38.105Z,87.23
2018-12-11T12:14:38.096Z,87.08
2018-12-11T12:15:38.055Z,87.35
2018-12-11T12:16:38.090Z,86.98
2018-12-11T12:17:38.047Z,86.78
2018-12-11T12:18:38.078Z,87.05
2018-12-11T12:19:38.448Z,85.91
2018-12-11T12:20:37.998Z,85.91
2018-12-11T12:21:38.004Z,86.22
2018-12-11T12:22:37.978Z,86.12
2018-12-11T12:23:38.036Z,85.19
2018-12-11T12:24:37.994Z,85.50
2018-12-11T12:25:37.961Z,85.39
2018-12-11T12:26:37.937Z,85.60
2018-12-11T12:27:37.976Z,85.39
2018-12-11T12:28:37.939Z,85.19
2018-12-11T12:29:37.939Z,85.91
2018-12-11T12:30:37.908Z,85.30
2018-12-11T12:31:37.900Z,85.91
2018-12-11T12:32:37.871Z,85.60
2018-12-11T12:33:37.856Z,85.30
2018-12-11T12:34:37.896Z,85.25
2018-12-11T12:36:38.980Z,84.01
2018-12-11T12:37:37.808Z,84.22
2018-12-11T12:38:37.834Z,84.43
2018-12-11T12:39:37.794Z,84.84
2018-12-11T12:40:37.784Z,84.64
2018-12-11T12:41:37.778Z,84.64
2018-12-11T12:42:37.754Z,85.36
2018-12-11T12:43:37.750Z,84.84
2018-12-11T12:44:37.777Z,84.74
2018-12-11T12:45:37.725Z,84.74
2018-12-11T12:46:37.740Z,84.84
2018-12-11T12:48:38.955Z,85.15
2018-12-11T12:50:38.858Z,84.78
2018-12-11T12:51:37.652Z,84.67
2018-12-11T12:52:37.675Z,84.06
2018-12-11T12:53:37.654Z,85.09
2018-12-11T12:54:37.659Z,84.67
2018-12-11T12:55:37.663Z,84.12
2018-12-11T12:56:37.615Z,84.12
2018-12-11T12:57:37.594Z,83.95
2018-12-11T12:58:37.607Z,83.54
2018-12-11T12:59:37.589Z,83.03
2018-12-11T13:00:37.589Z,83.64
2018-12-11T13:01:37.549Z,82.82
2018-12-11T13:02:37.547Z,83.23
2018-12-11T13:03:37.542Z,84.16
2018-12-11T13:04:37.535Z,83.71
2018-12-11T13:05:37.546Z,84.33
2018-12-11T13:06:37.492Z,84.16
2018-12-11T13:07:37.485Z,83.75
2018-12-11T13:08:37.485Z,84.16
2018-12-11T13:09:37.532Z,84.67
2018-12-11T13:10:37.452Z,83.95
2018-12-11T13:11:37.445Z,84.27
2018-12-11T13:12:37.440Z,84.47
2018-12-11T13:13:37.421Z,85.09
2018-12-11T13:14:37.404Z,84.47